sensor_id;sensor_type;location;lat;lon;timestamp;P1;durP1;ratioP1;P2;durP2;ratioP2
22644;SDS011;11489;50.834;6.752;2023-03-18T00:00:13;3.67;;;2.40;;
22644;SDS011;11489;50.834;6.752;2023-03-18T00:02:41;5.78;;;2.40;;
22644;SDS011;11489;50.834;6.752;2023-03-18T00:05:08;5.93;;;2.83;;
22644;SDS011;11489;50.834;6.752;2023-03-18T00:07:35;5.60;;;2.92;;
22644;SDS011;11489;50.834;6.752;2023-03-18T00:10:01;4.72;;;2.67;;
22644;SDS011;11489;50.834;6.752;2023-03-18T00:12:28;5.63;;;3.17;;
22644;SDS011;11489;50.834;6.752;2023-03-18T00:14:54;4.20;;;2.28;;
22644;SDS011;11489;50.834;6.752;2023-03-18T00:17:20;6.78;;;2.60;;
22644;SDS011;11489;50.834;6.752;2023-03-18T00:19:46;5.53;;;2.63;;
22644;SDS011;11489;50.834;6.752;2023-03-18T00:22:12;5.63;;;2.72;;
22644;SDS011;11489;50.834;6.752;2023-03-18T00:24:38;5.25;;;3.05;;
22644;SDS011;11489;50.834;6.752;2023-03-18T00:27:04;8.43;;;3.13;;
22644;SDS011;11489;50.834;6.752;2023-03-18T00:29:30;6.93;;;3.00;;
22644;SDS011;11489;50.834;6.752;2023-03-18T00:31:59;6.07;;;2.67;;
22644;SDS011;11489;50.834;6.752;2023-03-18T00:34:25;5.75;;;2.50;;
22644;SDS011;11489;50.834;6.752;2023-03-18T00:36:51;6.43;;;2.90;;
22644;SDS011;11489;50.834;6.752;2023-03-18T00:39:24;7.78;;;3.25;;
22644;SDS011;11489;50.834;6.752;2023-03-18T00:41:54;3.97;;;2.85;;
22644;SDS011;11489;50.834;6.752;2023-03-18T00:44:20;8.55;;;2.97;;
22644;SDS011;11489;50.834;6.752;2023-03-18T00:46:46;5.63;;;3.05;;
22644;SDS011;11489;50.834;6.752;2023-03-18T00:49:12;4.57;;;2.80;;
22644;SDS011;11489;50.834;6.752;2023-03-18T00:51:38;8.02;;;2.90;;
22644;SDS011;11489;50.834;6.752;2023-03-18T00:54:06;6.88;;;3.20;;
22644;SDS011;11489;50.834;6.752;2023-03-18T00:56:34;6.95;;;3.20;;
22644;SDS011;11489;50.834;6.752;2023-03-18T00:59:01;6.65;;;3.33;;
22644;SDS011;11489;50.834;6.752;2023-03-18T01:01:28;7.78;;;3.17;;
22644;SDS011;11489;50.834;6.752;2023-03-18T01:03:55;6.45;;;3.03;;
22644;SDS011;11489;50.834;6.752;2023-03-18T01:06:23;5.80;;;2.80;;
22644;SDS011;11489;50.834;6.752;2023-03-18T01:08:52;5.97;;;2.85;;
22644;SDS011;11489;50.834;6.752;2023-03-18T01:11:19;4.82;;;2.80;;
22644;SDS011;11489;50.834;6.752;2023-03-18T01:13:46;5.95;;;3.40;;
22644;SDS011;11489;50.834;6.752;2023-03-18T01:16:12;5.15;;;2.90;;
22644;SDS011;11489;50.834;6.752;2023-03-18T01:18:38;4.80;;;2.85;;
22644;SDS011;11489;50.834;6.752;2023-03-18T01:21:05;6.32;;;3.15;;
22644;SDS011;11489;50.834;6.752;2023-03-18T01:23:32;5.55;;;3.15;;
22644;SDS011;11489;50.834;6.752;2023-03-18T01:25:59;6.35;;;3.35;;
22644;SDS011;11489;50.834;6.752;2023-03-18T01:28:26;3.55;;;2.67;;
22644;SDS011;11489;50.834;6.752;2023-03-18T01:30:52;4.82;;;2.88;;
22644;SDS011;11489;50.834;6.752;2023-03-18T01:33:19;5.32;;;3.03;;
22644;SDS011;11489;50.834;6.752;2023-03-18T01:35:45;6.03;;;3.13;;
22644;SDS011;11489;50.834;6.752;2023-03-18T01:38:17;7.65;;;3.40;;
22644;SDS011;11489;50.834;6.752;2023-03-18T01:40:42;6.38;;;3.13;;
22644;SDS011;11489;50.834;6.752;2023-03-18T01:45:36;5.30;;;3.10;;
22644;SDS011;11489;50.834;6.752;2023-03-18T01:48:02;4.45;;;2.83;;
22644;SDS011;11489;50.834;6.752;2023-03-18T01:50:32;6.07;;;3.28;;
22644;SDS011;11489;50.834;6.752;2023-03-18T01:53:01;6.78;;;3.22;;
22644;SDS011;11489;50.834;6.752;2023-03-18T01:55:36;5.03;;;3.40;;
22644;SDS011;11489;50.834;6.752;2023-03-18T01:58:06;5.03;;;2.85;;
22644;SDS011;11489;50.834;6.752;2023-03-18T02:00:43;4.05;;;3.03;;
22644;SDS011;11489;50.834;6.752;2023-03-18T02:03:15;5.90;;;3.47;;
22644;SDS011;11489;50.834;6.752;2023-03-18T02:05:42;5.80;;;3.40;;
22644;SDS011;11489;50.834;6.752;2023-03-18T02:08:08;6.72;;;3.00;;
22644;SDS011;11489;50.834;6.752;2023-03-18T02:10:34;6.75;;;3.42;;
22644;SDS011;11489;50.834;6.752;2023-03-18T02:13:05;5.20;;;3.00;;
22644;SDS011;11489;50.834;6.752;2023-03-18T02:15:33;5.32;;;3.25;;
22644;SDS011;11489;50.834;6.752;2023-03-18T02:18:05;5.90;;;3.35;;
22644;SDS011;11489;50.834;6.752;2023-03-18T02:28:53;5.47;;;3.10;;
22644;SDS011;11489;50.834;6.752;2023-03-18T02:31:21;6.18;;;3.40;;
22644;SDS011;11489;50.834;6.752;2023-03-18T02:33:47;6.53;;;3.10;;
22644;SDS011;11489;50.834;6.752;2023-03-18T02:36:18;5.13;;;2.95;;
22644;SDS011;11489;50.834;6.752;2023-03-18T02:38:47;4.63;;;3.08;;
22644;SDS011;11489;50.834;6.752;2023-03-18T02:41:21;6.47;;;3.25;;
22644;SDS011;11489;50.834;6.752;2023-03-18T02:43:52;7.15;;;3.28;;
22644;SDS011;11489;50.834;6.752;2023-03-18T02:46:26;4.93;;;2.88;;
22644;SDS011;11489;50.834;6.752;2023-03-18T02:49:11;7.90;;;3.67;;
22644;SDS011;11489;50.834;6.752;2023-03-18T02:51:38;7.00;;;3.55;;
22644;SDS011;11489;50.834;6.752;2023-03-18T02:54:06;6.38;;;3.40;;
22644;SDS011;11489;50.834;6.752;2023-03-18T02:56:35;5.05;;;3.28;;
22644;SDS011;11489;50.834;6.752;2023-03-18T02:59:02;6.90;;;3.63;;
22644;SDS011;11489;50.834;6.752;2023-03-18T03:01:28;5.22;;;3.58;;
22644;SDS011;11489;50.834;6.752;2023-03-18T03:03:55;9.75;;;3.95;;
22644;SDS011;11489;50.834;6.752;2023-03-18T03:06:21;5.90;;;3.50;;
22644;SDS011;11489;50.834;6.752;2023-03-18T03:08:47;6.95;;;3.95;;
22644;SDS011;11489;50.834;6.752;2023-03-18T03:11:13;5.68;;;3.92;;
22644;SDS011;11489;50.834;6.752;2023-03-18T03:13:39;5.07;;;3.40;;
22644;SDS011;11489;50.834;6.752;2023-03-18T03:16:05;5.03;;;3.83;;
22644;SDS011;11489;50.834;6.752;2023-03-18T03:18:32;8.35;;;3.95;;
22644;SDS011;11489;50.834;6.752;2023-03-18T03:20:59;5.82;;;3.92;;
22644;SDS011;11489;50.834;6.752;2023-03-18T03:23:25;9.20;;;3.97;;
22644;SDS011;11489;50.834;6.752;2023-03-18T03:25:51;5.90;;;3.92;;
22644;SDS011;11489;50.834;6.752;2023-03-18T03:28:17;7.80;;;4.40;;
22644;SDS011;11489;50.834;6.752;2023-03-18T03:30:43;8.68;;;4.38;;
22644;SDS011;11489;50.834;6.752;2023-03-18T03:33:09;6.00;;;4.28;;
22644;SDS011;11489;50.834;6.752;2023-03-18T03:35:36;9.80;;;4.60;;
22644;SDS011;11489;50.834;6.752;2023-03-18T03:38:03;7.28;;;4.53;;
22644;SDS011;11489;50.834;6.752;2023-03-18T03:40:28;7.75;;;4.75;;
22644;SDS011;11489;50.834;6.752;2023-03-18T03:42:54;7.22;;;4.47;;
22644;SDS011;11489;50.834;6.752;2023-03-18T03:45:20;6.55;;;4.60;;
22644;SDS011;11489;50.834;6.752;2023-03-18T03:47:46;7.18;;;4.65;;
22644;SDS011;11489;50.834;6.752;2023-03-18T03:50:13;8.43;;;5.05;;
22644;SDS011;11489;50.834;6.752;2023-03-18T03:52:39;7.68;;;4.80;;
22644;SDS011;11489;50.834;6.752;2023-03-18T03:55:06;9.90;;;5.53;;
22644;SDS011;11489;50.834;6.752;2023-03-18T03:57:34;10.15;;;5.20;;
22644;SDS011;11489;50.834;6.752;2023-03-18T04:00:02;9.68;;;5.15;;
22644;SDS011;11489;50.834;6.752;2023-03-18T04:02:28;7.60;;;5.32;;
22644;SDS011;11489;50.834;6.752;2023-03-18T04:04:54;8.75;;;5.07;;
22644;SDS011;11489;50.834;6.752;2023-03-18T04:07:20;7.78;;;5.20;;
22644;SDS011;11489;50.834;6.752;2023-03-18T04:09:46;8.40;;;5.03;;
22644;SDS011;11489;50.834;6.752;2023-03-18T04:12:11;12.30;;;5.70;;
22644;SDS011;11489;50.834;6.752;2023-03-18T04:14:37;8.65;;;5.40;;
22644;SDS011;11489;50.834;6.752;2023-03-18T04:17:04;9.43;;;5.70;;
22644;SDS011;11489;50.834;6.752;2023-03-18T04:19:30;8.63;;;5.50;;
22644;SDS011;11489;50.834;6.752;2023-03-18T04:21:55;10.45;;;5.78;;
22644;SDS011;11489;50.834;6.752;2023-03-18T04:24:21;8.40;;;5.30;;
22644;SDS011;11489;50.834;6.752;2023-03-18T04:26:47;8.93;;;5.15;;
22644;SDS011;11489;50.834;6.752;2023-03-18T04:29:14;8.25;;;5.30;;
22644;SDS011;11489;50.834;6.752;2023-03-18T04:31:39;9.25;;;5.63;;
22644;SDS011;11489;50.834;6.752;2023-03-18T04:34:05;9.73;;;5.50;;
22644;SDS011;11489;50.834;6.752;2023-03-18T04:36:31;8.93;;;5.32;;
22644;SDS011;11489;50.834;6.752;2023-03-18T04:38:57;10.68;;;5.38;;
22644;SDS011;11489;50.834;6.752;2023-03-18T04:41:24;8.15;;;5.32;;
22644;SDS011;11489;50.834;6.752;2023-03-18T04:43:50;10.15;;;5.15;;
22644;SDS011;11489;50.834;6.752;2023-03-18T04:46:16;12.77;;;5.15;;
22644;SDS011;11489;50.834;6.752;2023-03-18T04:48:42;9.68;;;5.45;;
22644;SDS011;11489;50.834;6.752;2023-03-18T04:51:08;8.85;;;5.32;;
22644;SDS011;11489;50.834;6.752;2023-03-18T04:53:34;8.65;;;5.32;;
22644;SDS011;11489;50.834;6.752;2023-03-18T04:56:00;11.65;;;5.47;;
22644;SDS011;11489;50.834;6.752;2023-03-18T04:58:26;7.72;;;5.15;;
22644;SDS011;11489;50.834;6.752;2023-03-18T05:00:53;6.93;;;4.55;;
22644;SDS011;11489;50.834;6.752;2023-03-18T05:03:19;8.55;;;5.43;;
22644;SDS011;11489;50.834;6.752;2023-03-18T05:05:45;7.63;;;5.00;;
22644;SDS011;11489;50.834;6.752;2023-03-18T05:08:11;8.07;;;5.25;;
22644;SDS011;11489;50.834;6.752;2023-03-18T05:10:37;9.77;;;4.53;;
22644;SDS011;11489;50.834;6.752;2023-03-18T05:13:04;7.00;;;4.57;;
22644;SDS011;11489;50.834;6.752;2023-03-18T05:15:30;8.57;;;5.13;;
22644;SDS011;11489;50.834;6.752;2023-03-18T05:17:56;12.68;;;5.07;;
22644;SDS011;11489;50.834;6.752;2023-03-18T05:20:23;7.78;;;5.10;;
22644;SDS011;11489;50.834;6.752;2023-03-18T05:22:48;8.30;;;5.30;;
22644;SDS011;11489;50.834;6.752;2023-03-18T05:25:14;9.10;;;4.57;;
22644;SDS011;11489;50.834;6.752;2023-03-18T05:27:40;7.13;;;4.95;;
22644;SDS011;11489;50.834;6.752;2023-03-18T05:30:06;7.95;;;4.55;;
22644;SDS011;11489;50.834;6.752;2023-03-18T05:32:35;8.43;;;4.60;;
22644;SDS011;11489;50.834;6.752;2023-03-18T05:35:01;8.35;;;4.10;;
22644;SDS011;11489;50.834;6.752;2023-03-18T05:37:27;7.40;;;4.15;;
22644;SDS011;11489;50.834;6.752;2023-03-18T05:39:53;7.05;;;4.32;;
22644;SDS011;11489;50.834;6.752;2023-03-18T05:42:19;6.72;;;4.32;;
22644;SDS011;11489;50.834;6.752;2023-03-18T05:44:45;6.75;;;4.43;;
22644;SDS011;11489;50.834;6.752;2023-03-18T05:47:11;8.10;;;4.50;;
22644;SDS011;11489;50.834;6.752;2023-03-18T05:49:37;9.18;;;4.43;;
22644;SDS011;11489;50.834;6.752;2023-03-18T05:52:03;7.43;;;3.92;;
22644;SDS011;11489;50.834;6.752;2023-03-18T05:54:29;10.50;;;5.00;;
22644;SDS011;11489;50.834;6.752;2023-03-18T05:56:55;9.25;;;4.88;;
22644;SDS011;11489;50.834;6.752;2023-03-18T05:59:22;7.22;;;4.95;;
22644;SDS011;11489;50.834;6.752;2023-03-18T06:01:49;7.82;;;4.72;;
22644;SDS011;11489;50.834;6.752;2023-03-18T06:04:16;10.45;;;5.25;;
22644;SDS011;11489;50.834;6.752;2023-03-18T06:06:43;6.45;;;4.57;;
22644;SDS011;11489;50.834;6.752;2023-03-18T06:09:10;6.75;;;4.78;;
22644;SDS011;11489;50.834;6.752;2023-03-18T06:11:37;7.53;;;5.03;;
22644;SDS011;11489;50.834;6.752;2023-03-18T06:14:04;9.48;;;5.07;;
22644;SDS011;11489;50.834;6.752;2023-03-18T06:16:32;8.68;;;4.70;;
22644;SDS011;11489;50.834;6.752;2023-03-18T06:18:59;8.25;;;5.10;;
22644;SDS011;11489;50.834;6.752;2023-03-18T06:21:25;8.13;;;4.93;;
22644;SDS011;11489;50.834;6.752;2023-03-18T06:23:51;6.47;;;4.43;;
22644;SDS011;11489;50.834;6.752;2023-03-18T06:26:18;7.43;;;4.68;;
22644;SDS011;11489;50.834;6.752;2023-03-18T06:28:44;6.57;;;4.40;;
22644;SDS011;11489;50.834;6.752;2023-03-18T06:31:10;8.82;;;4.60;;
22644;SDS011;11489;50.834;6.752;2023-03-18T06:33:36;6.18;;;4.35;;
22644;SDS011;11489;50.834;6.752;2023-03-18T06:36:02;7.68;;;4.55;;
22644;SDS011;11489;50.834;6.752;2023-03-18T06:38:28;8.25;;;5.18;;
22644;SDS011;11489;50.834;6.752;2023-03-18T06:40:55;11.98;;;5.82;;
22644;SDS011;11489;50.834;6.752;2023-03-18T06:43:21;8.88;;;5.43;;
22644;SDS011;11489;50.834;6.752;2023-03-18T06:45:46;11.27;;;5.88;;
22644;SDS011;11489;50.834;6.752;2023-03-18T06:48:12;9.60;;;6.03;;
22644;SDS011;11489;50.834;6.752;2023-03-18T06:50:38;8.35;;;5.70;;
22644;SDS011;11489;50.834;6.752;2023-03-18T06:53:05;8.75;;;5.45;;
22644;SDS011;11489;50.834;6.752;2023-03-18T06:55:31;7.25;;;5.10;;
22644;SDS011;11489;50.834;6.752;2023-03-18T06:57:57;10.18;;;5.78;;
22644;SDS011;11489;50.834;6.752;2023-03-18T07:00:24;8.75;;;5.72;;
22644;SDS011;11489;50.834;6.752;2023-03-18T07:02:50;12.25;;;6.18;;
22644;SDS011;11489;50.834;6.752;2023-03-18T07:05:17;9.77;;;5.68;;
22644;SDS011;11489;50.834;6.752;2023-03-18T07:07:43;8.88;;;6.07;;
22644;SDS011;11489;50.834;6.752;2023-03-18T07:10:10;8.77;;;6.40;;
22644;SDS011;11489;50.834;6.752;2023-03-18T07:12:45;8.13;;;5.97;;
22644;SDS011;11489;50.834;6.752;2023-03-18T07:15:12;10.27;;;6.18;;
22644;SDS011;11489;50.834;6.752;2023-03-18T07:17:38;9.80;;;5.68;;
22644;SDS011;11489;50.834;6.752;2023-03-18T07:20:04;7.70;;;5.85;;
22644;SDS011;11489;50.834;6.752;2023-03-18T07:22:31;9.85;;;6.18;;
22644;SDS011;11489;50.834;6.752;2023-03-18T07:24:57;7.93;;;5.97;;
22644;SDS011;11489;50.834;6.752;2023-03-18T07:27:22;7.47;;;5.80;;
22644;SDS011;11489;50.834;6.752;2023-03-18T07:29:48;9.05;;;5.53;;
22644;SDS011;11489;50.834;6.752;2023-03-18T07:32:14;9.20;;;5.95;;
22644;SDS011;11489;50.834;6.752;2023-03-18T07:34:41;12.93;;;5.88;;
22644;SDS011;11489;50.834;6.752;2023-03-18T07:37:06;10.23;;;5.80;;
22644;SDS011;11489;50.834;6.752;2023-03-18T07:39:32;9.30;;;5.72;;
22644;SDS011;11489;50.834;6.752;2023-03-18T07:41:58;7.45;;;5.45;;
22644;SDS011;11489;50.834;6.752;2023-03-18T07:44:24;10.48;;;5.47;;
22644;SDS011;11489;50.834;6.752;2023-03-18T07:46:50;9.65;;;5.72;;
22644;SDS011;11489;50.834;6.752;2023-03-18T07:49:16;9.25;;;5.95;;
22644;SDS011;11489;50.834;6.752;2023-03-18T07:51:41;7.22;;;5.32;;
22644;SDS011;11489;50.834;6.752;2023-03-18T07:54:07;8.43;;;5.57;;
22644;SDS011;11489;50.834;6.752;2023-03-18T07:56:33;9.75;;;5.40;;
22644;SDS011;11489;50.834;6.752;2023-03-18T07:58:59;10.20;;;5.43;;
22644;SDS011;11489;50.834;6.752;2023-03-18T08:01:25;6.78;;;4.70;;
22644;SDS011;11489;50.834;6.752;2023-03-18T08:03:51;7.43;;;4.25;;
22644;SDS011;11489;50.834;6.752;2023-03-18T08:06:17;6.25;;;3.78;;
22644;SDS011;11489;50.834;6.752;2023-03-18T08:08:43;5.78;;;3.90;;
22644;SDS011;11489;50.834;6.752;2023-03-18T08:11:09;6.57;;;3.60;;
22644;SDS011;11489;50.834;6.752;2023-03-18T08:13:36;5.55;;;3.83;;
22644;SDS011;11489;50.834;6.752;2023-03-18T08:16:03;7.80;;;4.00;;
22644;SDS011;11489;50.834;6.752;2023-03-18T08:18:28;5.45;;;3.83;;
22644;SDS011;11489;50.834;6.752;2023-03-18T08:20:54;7.40;;;3.92;;
22644;SDS011;11489;50.834;6.752;2023-03-18T08:23:21;6.65;;;3.78;;
22644;SDS011;11489;50.834;6.752;2023-03-18T08:25:48;7.03;;;3.78;;
22644;SDS011;11489;50.834;6.752;2023-03-18T08:28:15;5.20;;;3.58;;
22644;SDS011;11489;50.834;6.752;2023-03-18T08:30:42;5.65;;;3.53;;
22644;SDS011;11489;50.834;6.752;2023-03-18T08:33:08;5.78;;;3.85;;
22644;SDS011;11489;50.834;6.752;2023-03-18T08:35:34;6.43;;;3.65;;
22644;SDS011;11489;50.834;6.752;2023-03-18T08:38:00;8.07;;;3.85;;
22644;SDS011;11489;50.834;6.752;2023-03-18T08:40:26;6.63;;;3.63;;
22644;SDS011;11489;50.834;6.752;2023-03-18T08:42:51;6.07;;;3.60;;
22644;SDS011;11489;50.834;6.752;2023-03-18T08:45:18;5.15;;;3.50;;
22644;SDS011;11489;50.834;6.752;2023-03-18T08:47:44;5.20;;;3.40;;
22644;SDS011;11489;50.834;6.752;2023-03-18T08:50:10;3.67;;;2.90;;
22644;SDS011;11489;50.834;6.752;2023-03-18T08:52:37;6.10;;;3.70;;
22644;SDS011;11489;50.834;6.752;2023-03-18T08:55:04;4.15;;;3.30;;
22644;SDS011;11489;50.834;6.752;2023-03-18T08:57:31;4.25;;;3.22;;
22644;SDS011;11489;50.834;6.752;2023-03-18T08:59:57;5.68;;;3.47;;
22644;SDS011;11489;50.834;6.752;2023-03-18T09:02:22;3.83;;;2.90;;
22644;SDS011;11489;50.834;6.752;2023-03-18T09:04:48;5.20;;;3.10;;
22644;SDS011;11489;50.834;6.752;2023-03-18T09:07:15;3.90;;;2.60;;
22644;SDS011;11489;50.834;6.752;2023-03-18T09:09:41;4.68;;;2.78;;
22644;SDS011;11489;50.834;6.752;2023-03-18T09:12:07;7.32;;;3.20;;
22644;SDS011;11489;50.834;6.752;2023-03-18T09:14:34;4.97;;;2.72;;
22644;SDS011;11489;50.834;6.752;2023-03-18T09:17:00;3.45;;;2.30;;
22644;SDS011;11489;50.834;6.752;2023-03-18T09:19:26;4.18;;;2.60;;
22644;SDS011;11489;50.834;6.752;2023-03-18T09:21:51;3.75;;;2.30;;
22644;SDS011;11489;50.834;6.752;2023-03-18T09:24:17;3.90;;;2.45;;
22644;SDS011;11489;50.834;6.752;2023-03-18T09:26:43;3.95;;;2.70;;
22644;SDS011;11489;50.834;6.752;2023-03-18T09:29:09;4.28;;;2.40;;
22644;SDS011;11489;50.834;6.752;2023-03-18T09:31:35;3.22;;;2.40;;
22644;SDS011;11489;50.834;6.752;2023-03-18T09:34:01;4.22;;;2.50;;
22644;SDS011;11489;50.834;6.752;2023-03-18T09:36:27;4.35;;;2.80;;
22644;SDS011;11489;50.834;6.752;2023-03-18T09:38:53;4.43;;;2.13;;
22644;SDS011;11489;50.834;6.752;2023-03-18T09:44:23;3.45;;;2.60;;
22644;SDS011;11489;50.834;6.752;2023-03-18T09:58:06;4.60;;;1.92;;
22644;SDS011;11489;50.834;6.752;2023-03-18T10:00:54;2.47;;;1.90;;
22644;SDS011;11489;50.834;6.752;2023-03-18T10:03:26;3.33;;;1.70;;
22644;SDS011;11489;50.834;6.752;2023-03-18T10:06:05;1.83;;;1.50;;
22644;SDS011;11489;50.834;6.752;2023-03-18T10:08:42;3.80;;;1.90;;
22644;SDS011;11489;50.834;6.752;2023-03-18T10:11:13;3.88;;;1.67;;
22644;SDS011;11489;50.834;6.752;2023-03-18T10:14:07;3.15;;;1.90;;
22644;SDS011;11489;50.834;6.752;2023-03-18T10:16:41;5.25;;;1.95;;
22644;SDS011;11489;50.834;6.752;2023-03-18T10:19:29;1.92;;;1.55;;
22644;SDS011;11489;50.834;6.752;2023-03-18T10:24:36;3.38;;;1.70;;
22644;SDS011;11489;50.834;6.752;2023-03-18T10:27:23;3.58;;;1.80;;
22644;SDS011;11489;50.834;6.752;2023-03-18T10:33:05;1.88;;;1.35;;
22644;SDS011;11489;50.834;6.752;2023-03-18T10:35:47;2.42;;;1.35;;
22644;SDS011;11489;50.834;6.752;2023-03-18T10:38:26;5.55;;;1.65;;
22644;SDS011;11489;50.834;6.752;2023-03-18T10:40:58;3.97;;;1.50;;
22644;SDS011;11489;50.834;6.752;2023-03-18T10:43:25;3.30;;;1.50;;
22644;SDS011;11489;50.834;6.752;2023-03-18T10:45:59;2.67;;;1.58;;
22644;SDS011;11489;50.834;6.752;2023-03-18T10:48:34;2.20;;;1.33;;
22644;SDS011;11489;50.834;6.752;2023-03-18T10:51:19;2.65;;;1.50;;
22644;SDS011;11489;50.834;6.752;2023-03-18T10:54:05;2.78;;;1.25;;
22644;SDS011;11489;50.834;6.752;2023-03-18T10:56:41;3.50;;;1.60;;
22644;SDS011;11489;50.834;6.752;2023-03-18T10:59:09;3.80;;;1.25;;
22644;SDS011;11489;50.834;6.752;2023-03-18T11:01:41;2.65;;;1.27;;
22644;SDS011;11489;50.834;6.752;2023-03-18T11:04:14;1.92;;;1.35;;
22644;SDS011;11489;50.834;6.752;2023-03-18T11:09:21;2.05;;;1.30;;
22644;SDS011;11489;50.834;6.752;2023-03-18T11:11:56;4.93;;;1.50;;
22644;SDS011;11489;50.834;6.752;2023-03-18T11:14:28;2.47;;;1.48;;
22644;SDS011;11489;50.834;6.752;2023-03-18T11:24:35;2.67;;;1.35;;
22644;SDS011;11489;50.834;6.752;2023-03-18T11:29:42;1.77;;;1.17;;
22644;SDS011;11489;50.834;6.752;2023-03-18T11:32:24;2.22;;;1.17;;
22644;SDS011;11489;50.834;6.752;2023-03-18T11:34:53;5.93;;;1.40;;
22644;SDS011;11489;50.834;6.752;2023-03-18T11:37:33;4.57;;;1.50;;
22644;SDS011;11489;50.834;6.752;2023-03-18T11:40:04;2.13;;;1.40;;
22644;SDS011;11489;50.834;6.752;2023-03-18T11:42:46;3.53;;;1.55;;
22644;SDS011;11489;50.834;6.752;2023-03-18T11:48:15;2.50;;;1.27;;
22644;SDS011;11489;50.834;6.752;2023-03-18T12:01:53;2.45;;;1.10;;
22644;SDS011;11489;50.834;6.752;2023-03-18T12:12:47;1.55;;;1.20;;
22644;SDS011;11489;50.834;6.752;2023-03-18T12:15:30;4.70;;;1.10;;
22644;SDS011;11489;50.834;6.752;2023-03-18T12:37:35;3.30;;;1.48;;
22644;SDS011;11489;50.834;6.752;2023-03-18T12:40:28;2.72;;;1.20;;
22644;SDS011;11489;50.834;6.752;2023-03-18T12:45:46;2.55;;;1.23;;
22644;SDS011;11489;50.834;6.752;2023-03-18T12:48:17;3.60;;;1.15;;
22644;SDS011;11489;50.834;6.752;2023-03-18T12:50:49;2.33;;;1.25;;
22644;SDS011;11489;50.834;6.752;2023-03-18T12:55:55;1.50;;;1.15;;
22644;SDS011;11489;50.834;6.752;2023-03-18T12:58:34;1.83;;;1.00;;
22644;SDS011;11489;50.834;6.752;2023-03-18T13:01:07;2.58;;;1.05;;
22644;SDS011;11489;50.834;6.752;2023-03-18T13:04:25;3.60;;;1.10;;
22644;SDS011;11489;50.834;6.752;2023-03-18T13:06:44;3.00;;;1.20;;
22644;SDS011;11489;50.834;6.752;2023-03-18T13:12:24;2.33;;;1.10;;
22644;SDS011;11489;50.834;6.752;2023-03-18T13:15:03;2.78;;;1.27;;
22644;SDS011;11489;50.834;6.752;2023-03-18T13:17:41;2.92;;;1.20;;
22644;SDS011;11489;50.834;6.752;2023-03-18T13:26:07;2.67;;;1.15;;
22644;SDS011;11489;50.834;6.752;2023-03-18T13:28:55;3.72;;;1.30;;
22644;SDS011;11489;50.834;6.752;2023-03-18T13:31:37;1.83;;;1.10;;
22644;SDS011;11489;50.834;6.752;2023-03-18T13:34:26;2.10;;;1.10;;
22644;SDS011;11489;50.834;6.752;2023-03-18T13:37:16;4.45;;;1.40;;
22644;SDS011;11489;50.834;6.752;2023-03-18T13:42:35;2.75;;;1.30;;
22644;SDS011;11489;50.834;6.752;2023-03-18T13:47:55;3.58;;;1.38;;
22644;SDS011;11489;50.834;6.752;2023-03-18T13:50:39;4.70;;;1.60;;
22644;SDS011;11489;50.834;6.752;2023-03-18T13:53:20;5.55;;;1.50;;
22644;SDS011;11489;50.834;6.752;2023-03-18T13:58:32;3.92;;;1.48;;
22644;SDS011;11489;50.834;6.752;2023-03-18T14:06:19;3.83;;;1.33;;
22644;SDS011;11489;50.834;6.752;2023-03-18T14:11:53;7.22;;;1.70;;
22644;SDS011;11489;50.834;6.752;2023-03-18T14:14:52;5.43;;;1.50;;
22644;SDS011;11489;50.834;6.752;2023-03-18T14:17:22;3.58;;;1.48;;
22644;SDS011;11489;50.834;6.752;2023-03-18T14:19:53;4.20;;;1.50;;
22644;SDS011;11489;50.834;6.752;2023-03-18T14:25:05;4.10;;;1.60;;
22644;SDS011;11489;50.834;6.752;2023-03-18T14:27:53;4.13;;;1.42;;
22644;SDS011;11489;50.834;6.752;2023-03-18T14:33:26;4.15;;;1.20;;
22644;SDS011;11489;50.834;6.752;2023-03-18T14:36:01;3.78;;;1.52;;
22644;SDS011;11489;50.834;6.752;2023-03-18T14:41:02;3.40;;;1.20;;
22644;SDS011;11489;50.834;6.752;2023-03-18T14:43:39;2.90;;;1.50;;
22644;SDS011;11489;50.834;6.752;2023-03-18T14:46:29;3.83;;;1.10;;
22644;SDS011;11489;50.834;6.752;2023-03-18T14:48:58;3.92;;;1.17;;
22644;SDS011;11489;50.834;6.752;2023-03-18T14:51:25;4.20;;;1.38;;
22644;SDS011;11489;50.834;6.752;2023-03-18T14:54:02;2.58;;;1.20;;
22644;SDS011;11489;50.834;6.752;2023-03-18T14:56:35;3.60;;;1.30;;
22644;SDS011;11489;50.834;6.752;2023-03-18T14:59:04;3.03;;;1.25;;
22644;SDS011;11489;50.834;6.752;2023-03-18T15:01:33;4.30;;;1.58;;
22644;SDS011;11489;50.834;6.752;2023-03-18T15:04:01;6.05;;;1.35;;
22644;SDS011;11489;50.834;6.752;2023-03-18T15:06:27;2.97;;;1.35;;
22644;SDS011;11489;50.834;6.752;2023-03-18T15:09:04;5.40;;;1.35;;
22644;SDS011;11489;50.834;6.752;2023-03-18T15:11:41;2.15;;;1.13;;
22644;SDS011;11489;50.834;6.752;2023-03-18T15:16:54;2.17;;;1.40;;
22644;SDS011;11489;50.834;6.752;2023-03-18T15:19:24;4.20;;;1.33;;
22644;SDS011;11489;50.834;6.752;2023-03-18T15:21:51;4.38;;;1.38;;
22644;SDS011;11489;50.834;6.752;2023-03-18T15:24:21;1.75;;;1.00;;
22644;SDS011;11489;50.834;6.752;2023-03-18T15:26:57;4.80;;;1.23;;
22644;SDS011;11489;50.834;6.752;2023-03-18T15:34:54;2.30;;;1.20;;
22644;SDS011;11489;50.834;6.752;2023-03-18T15:37:41;1.50;;;1.00;;
22644;SDS011;11489;50.834;6.752;2023-03-18T15:45:51;3.35;;;1.10;;
22644;SDS011;11489;50.834;6.752;2023-03-18T15:48:31;4.13;;;1.20;;
22644;SDS011;11489;50.834;6.752;2023-03-18T15:51:04;3.42;;;1.33;;
22644;SDS011;11489;50.834;6.752;2023-03-18T15:53:45;3.35;;;1.27;;
22644;SDS011;11489;50.834;6.752;2023-03-18T15:56:18;3.33;;;1.30;;
22644;SDS011;11489;50.834;6.752;2023-03-18T15:59:13;2.78;;;1.08;;
22644;SDS011;11489;50.834;6.752;2023-03-18T16:01:43;7.03;;;3.63;;
22644;SDS011;11489;50.834;6.752;2023-03-18T16:04:12;12.88;;;6.55;;
22644;SDS011;11489;50.834;6.752;2023-03-18T16:06:40;7.70;;;3.90;;
22644;SDS011;11489;50.834;6.752;2023-03-18T16:09:16;7.72;;;3.60;;
22644;SDS011;11489;50.834;6.752;2023-03-18T16:11:45;6.45;;;3.15;;
22644;SDS011;11489;50.834;6.752;2023-03-18T16:14:17;4.93;;;3.33;;
22644;SDS011;11489;50.834;6.752;2023-03-18T16:16:45;6.65;;;2.72;;
22644;SDS011;11489;50.834;6.752;2023-03-18T16:19:17;4.60;;;1.77;;
22644;SDS011;11489;50.834;6.752;2023-03-18T16:21:49;3.97;;;1.50;;
22644;SDS011;11489;50.834;6.752;2023-03-18T16:24:15;2.63;;;1.40;;
22644;SDS011;11489;50.834;6.752;2023-03-18T16:26:41;3.00;;;1.30;;
22644;SDS011;11489;50.834;6.752;2023-03-18T16:29:11;2.28;;;1.23;;
22644;SDS011;11489;50.834;6.752;2023-03-18T16:31:39;2.28;;;1.13;;
22644;SDS011;11489;50.834;6.752;2023-03-18T16:34:23;2.35;;;1.35;;
22644;SDS011;11489;50.834;6.752;2023-03-18T16:36:50;5.00;;;1.20;;
22644;SDS011;11489;50.834;6.752;2023-03-18T16:41:46;3.63;;;1.30;;
22644;SDS011;11489;50.834;6.752;2023-03-18T16:44:12;1.95;;;1.02;;
22644;SDS011;11489;50.834;6.752;2023-03-18T16:46:41;2.28;;;1.00;;
22644;SDS011;11489;50.834;6.752;2023-03-18T16:49:18;3.88;;;1.10;;
22644;SDS011;11489;50.834;6.752;2023-03-18T16:51:46;1.88;;;1.20;;
22644;SDS011;11489;50.834;6.752;2023-03-18T16:54:17;3.70;;;1.00;;
22644;SDS011;11489;50.834;6.752;2023-03-18T16:56:45;1.90;;;1.05;;
22644;SDS011;11489;50.834;6.752;2023-03-18T16:59:13;3.95;;;1.20;;
22644;SDS011;11489;50.834;6.752;2023-03-18T17:01:42;6.28;;;1.13;;
22644;SDS011;11489;50.834;6.752;2023-03-18T17:06:55;3.35;;;1.10;;
22644;SDS011;11489;50.834;6.752;2023-03-18T17:09:22;1.67;;;1.02;;
22644;SDS011;11489;50.834;6.752;2023-03-18T17:11:50;2.42;;;1.10;;
22644;SDS011;11489;50.834;6.752;2023-03-18T17:14:23;3.35;;;1.23;;
22644;SDS011;11489;50.834;6.752;2023-03-18T17:16:58;3.67;;;1.50;;
22644;SDS011;11489;50.834;6.752;2023-03-18T17:19:25;2.13;;;1.45;;
22644;SDS011;11489;50.834;6.752;2023-03-18T17:21:51;2.92;;;1.60;;
22644;SDS011;11489;50.834;6.752;2023-03-18T17:24:18;2.60;;;1.60;;